^^
Grace C. Lehan Memorial Weather Station Historical Data
Daily Summary for May 9, 2021 Units:  Both    English   Metric
Daily Weekly Monthly Yearly
  High: Low: Average:
Temperature: 92.3 °F /  33.5 °C 71.5 °F /  21.9 °C 79.4 °F /  26.3 °C
Dew Point: 76.1 °F /  24.5 °C 68.3 °F /  20.2 °C 72.7 °F /  22.6 °C
Humidity: 96% 56.2% 81%
Wind Speed: 3.8mph /  6.1km/h - 0.3mph /  0.5km/h
Wind Gust: 11mph /  17.7km/h - -
Wind- - SSW
Pressure: 29.95 in /  1014.1 hPa 29.88 in /  1011.7 hPa -
Precipitation: 0.00 in /  0 mm    
 
 
Tabular Data for May 9, 2021
Time Temperature Dew Point Pressure Wind Wind Speed Wind Gust Humidity Rainfall Rate (Hourly) solar
00:00 73.8 °F /  23.2 °C 72.3 °F /  22.4 °C 29.94in /  1013.8hPa Calm     95% 0.00in /  0mm 0 W/m2
00:09 73.7 °F /  23.2 °C 72.2 °F /  22.3 °C 29.94in /  1013.8hPa Calm     95% 0.00in /  0mm 0 W/m2
00:14 73.7 °F /  23.2 °C 72.2 °F /  22.3 °C 29.94in /  1013.8hPa Calm     95% 0.00in /  0mm 0 W/m2
00:19 73.6 °F /  23.1 °C 72.1 °F /  22.3 °C 29.94in /  1013.8hPa Calm     95% 0.00in /  0mm 0 W/m2
00:24 73.6 °F /  23.1 °C 72.3 °F /  22.4 °C 29.94in /  1013.8hPa Calm     95.8% 0.00in /  0mm 0 W/m2
00:29 73.5 °F /  23.1 °C 72.1 °F /  22.3 °C 29.94in /  1013.8hPa Calm     95.2% 0.00in /  0mm 0 W/m2
00:34 73.5 °F /  23.1 °C 72 °F /  22.2 °C 29.94in /  1013.8hPa Calm     95% 0.00in /  0mm 0 W/m2
00:39 73.5 °F /  23.1 °C 72 °F /  22.2 °C 29.94in /  1013.8hPa Calm     95% 0.00in /  0mm 0 W/m2
00:44 73.4 °F /  23 °C 71.9 °F /  22.2 °C 29.94in /  1013.8hPa Calm     95% 0.00in /  0mm 0 W/m2
00:49 73.4 °F /  23 °C 71.9 °F /  22.2 °C 29.94in /  1013.8hPa Calm     95% 0.00in /  0mm 0 W/m2
00:54 73.4 °F /  23 °C 71.9 °F /  22.2 °C 29.94in /  1013.8hPa Calm     95% 0.00in /  0mm 0 W/m2
00:59 73.3 °F /  22.9 °C 72 °F /  22.2 °C 29.94in /  1013.8hPa Calm     95.6% 0.00in /  0mm 0 W/m2
01:04 73.3 °F /  22.9 °C 72.1 °F /  22.3 °C 29.94in /  1013.8hPa Calm     96% 0.00in /  0mm 0 W/m2
01:09 73.3 °F /  22.9 °C 72.1 °F /  22.3 °C 29.93in /  1013.4hPa Calm     96% 0.00in /  0mm 0 W/m2
01:14 73.3 °F /  22.9 °C 72.1 °F /  22.3 °C 29.93in /  1013.4hPa Calm     96% 0.00in /  0mm 0 W/m2
01:19 73.3 °F /  22.9 °C 72.1 °F /  22.3 °C 29.93in /  1013.4hPa Calm     96% 0.00in /  0mm 0 W/m2
01:24 73.2 °F /  22.9 °C 72 °F /  22.2 °C 29.93in /  1013.4hPa Calm     96% 0.00in /  0mm 0 W/m2
01:29 73.2 °F /  22.9 °C 72 °F /  22.2 °C 29.93in /  1013.4hPa Calm     96% 0.00in /  0mm 0 W/m2
01:34 73.1 °F /  22.8 °C 71.9 °F /  22.2 °C 29.93in /  1013.4hPa Calm     96% 0.00in /  0mm 0 W/m2
01:39 73.1 °F /  22.8 °C 71.9 °F /  22.2 °C 29.94in /  1013.8hPa Calm     96% 0.00in /  0mm 0 W/m2
01:44 73 °F /  22.8 °C 71.8 °F /  22.1 °C 29.94in /  1013.8hPa Calm     96% 0.00in /  0mm 0 W/m2
01:49 73 °F /  22.8 °C 71.8 °F /  22.1 °C 29.93in /  1013.4hPa Calm     96% 0.00in /  0mm 0 W/m2
01:54 72.9 °F /  22.7 °C 71.4 °F /  21.9 °C 29.93in /  1013.4hPa Calm     95.1% 0.00in /  0mm 0 W/m2
01:59 72.8 °F /  22.7 °C 71.3 °F /  21.8 °C 29.93in /  1013.4hPa West 0.2mph /  0.3km/h 3mph /  4.8km/h 95.2% 0.00in /  0mm 0 W/m2
02:04 72.7 °F /  22.6 °C 71.5 °F /  21.9 °C 29.93in /  1013.4hPa West 0.1mph /  0.2km/h 3mph /  4.8km/h 96% 0.00in /  0mm 0 W/m2
02:09 72.6 °F /  22.6 °C 71.4 °F /  21.9 °C 29.93in /  1013.4hPa West 0.1mph /  0.2km/h 2mph /  3.2km/h 96% 0.00in /  0mm 0 W/m2
02:14 72.6 °F /  22.6 °C 71.4 °F /  21.9 °C 29.93in /  1013.4hPa West 0.1mph /  0.2km/h 2mph /  3.2km/h 96% 0.00in /  0mm 0 W/m2
02:19 72.5 °F /  22.5 °C 71.3 °F /  21.8 °C 29.93in /  1013.4hPa Calm   2mph /  3.2km/h 96% 0.00in /  0mm 0 W/m2
02:24 72.5 °F /  22.5 °C 71.3 °F /  21.8 °C 29.93in /  1013.4hPa Calm   2mph /  3.2km/h 96% 0.00in /  0mm 0 W/m2
02:29 72.4 °F /  22.4 °C 71.2 °F /  21.8 °C 29.93in /  1013.4hPa Calm   2mph /  3.2km/h 96% 0.00in /  0mm 0 W/m2
02:34 72.4 °F /  22.4 °C 71.2 °F /  21.8 °C 29.93in /  1013.4hPa Calm   2mph /  3.2km/h 96% 0.00in /  0mm 0 W/m2
02:39 72.4 °F /  22.4 °C 71.2 °F /  21.8 °C 29.93in /  1013.4hPa Calm     96% 0.00in /  0mm 0 W/m2
02:44 72.4 °F /  22.4 °C 71.2 °F /  21.8 °C 29.93in /  1013.4hPa Calm     96% 0.00in /  0mm 0 W/m2
02:49 72.4 °F /  22.4 °C 71.2 °F /  21.8 °C 29.93in /  1013.4hPa Calm     96% 0.00in /  0mm 0 W/m2
02:54 72.4 °F /  22.4 °C 71.2 °F /  21.8 °C 29.93in /  1013.4hPa Calm   1mph /  1.6km/h 96% 0.00in /  0mm 0 W/m2
02:59 72.4 °F /  22.4 °C 71.2 °F /  21.8 °C 29.93in /  1013.4hPa West 0.4mph /  0.6km/h 5mph /  8km/h 96% 0.00in /  0mm 0 W/m2
03:04 72.3 °F /  22.4 °C 71.1 °F /  21.7 °C 29.93in /  1013.4hPa Calm   5mph /  8km/h 96% 0.00in /  0mm 0 W/m2
03:09 72.3 °F /  22.4 °C 71.1 °F /  21.7 °C 29.93in /  1013.4hPa Calm   1mph /  1.6km/h 96% 0.00in /  0mm 0 W/m2
03:14 72.3 °F /  22.4 °C 71.1 °F /  21.7 °C 29.93in /  1013.4hPa Calm   1mph /  1.6km/h 96% 0.00in /  0mm 0 W/m2
03:19 72.2 °F /  22.3 °C 71 °F /  21.7 °C 29.93in /  1013.4hPa Calm   1mph /  1.6km/h 96% 0.00in /  0mm 0 W/m2
03:24 72.2 °F /  22.3 °C 71 °F /  21.7 °C 29.93in /  1013.4hPa Calm   1mph /  1.6km/h 96% 0.00in /  0mm 0 W/m2
03:29 72.2 °F /  22.3 °C 71 °F /  21.7 °C 29.92in /  1013.1hPa Calm   1mph /  1.6km/h 96% 0.00in /  0mm 0 W/m2
03:34 72.2 °F /  22.3 °C 71 °F /  21.7 °C 29.92in /  1013.1hPa Calm   1mph /  1.6km/h 96% 0.00in /  0mm 0 W/m2
03:39 72.2 °F /  22.3 °C 71 °F /  21.7 °C 29.92in /  1013.1hPa Calm   1mph /  1.6km/h 96% 0.00in /  0mm 0 W/m2
03:44 72.1 °F /  22.3 °C 70.9 °F /  21.6 °C 29.92in /  1013.1hPa Calm   1mph /  1.6km/h 96% 0.00in /  0mm 0 W/m2
03:49 72.1 °F /  22.3 °C 70.9 °F /  21.6 °C 29.93in /  1013.4hPa Calm   1mph /  1.6km/h 96% 0.00in /  0mm 0 W/m2
03:54 72.1 °F /  22.3 °C 70.9 °F /  21.6 °C 29.92in /  1013.1hPa Calm   1mph /  1.6km/h 96% 0.00in /  0mm 0 W/m2
03:59 72.1 °F /  22.3 °C 70.9 °F /  21.6 °C 29.92in /  1013.1hPa West 0.6mph /  1km/h 6mph /  9.7km/h 96% 0.00in /  0mm 0 W/m2
04:09 72 °F /  22.2 °C 70.8 °F /  21.6 °C 29.92in /  1013.1hPa Calm     96% 0.00in /  0mm 0 W/m2
04:14 71.9 °F /  22.2 °C 70.7 °F /  21.5 °C 29.92in /  1013.1hPa Calm     96% 0.00in /  0mm 0 W/m2
04:19 71.9 °F /  22.2 °C 70.7 °F /  21.5 °C 29.92in /  1013.1hPa Calm     96% 0.00in /  0mm 0 W/m2
04:24 71.9 °F /  22.2 °C 70.7 °F /  21.5 °C 29.92in /  1013.1hPa Calm     96% 0.00in /  0mm 0 W/m2
04:29 71.8 °F /  22.1 °C 70.6 °F /  21.4 °C 29.92in /  1013.1hPa Calm     96% 0.00in /  0mm 0 W/m2
04:34 71.8 °F /  22.1 °C 70.6 °F /  21.4 °C 29.92in /  1013.1hPa Calm     96% 0.00in /  0mm 0 W/m2
04:39 71.8 °F /  22.1 °C 70.6 °F /  21.4 °C 29.91in /  1012.8hPa Calm     96% 0.00in /  0mm 0 W/m2
04:44 71.8 °F /  22.1 °C 70.6 °F /  21.4 °C 29.91in /  1012.8hPa Calm   1mph /  1.6km/h 96% 0.00in /  0mm 0 W/m2
04:49 71.8 °F /  22.1 °C 70.6 °F /  21.4 °C 29.91in /  1012.8hPa Calm   1mph /  1.6km/h 96% 0.00in /  0mm 0 W/m2
04:54 71.7 °F /  22.1 °C 70.5 °F /  21.4 °C 29.91in /  1012.8hPa Calm   1mph /  1.6km/h 96% 0.00in /  0mm 0 W/m2
04:59 71.7 °F /  22.1 °C 70.5 °F /  21.4 °C 29.91in /  1012.8hPa Calm   1mph /  1.6km/h 96% 0.00in /  0mm 0 W/m2
05:04 71.7 °F /  22.1 °C 70.5 °F /  21.4 °C 29.91in /  1012.8hPa Calm   1mph /  1.6km/h 96% 0.00in /  0mm 0 W/m2
05:09 71.6 °F /  22 °C 70.4 °F /  21.3 °C 29.91in /  1012.8hPa Calm     96% 0.00in /  0mm 0 W/m2
05:13 71.6 °F /  22 °C 70.4 °F /  21.3 °C 29.91in /  1012.8hPa Calm     96% 0.00in /  0mm 0 W/m2
05:19 71.6 °F /  22 °C 70.4 °F /  21.3 °C 29.91in /  1012.8hPa Calm     96% 0.00in /  0mm 0 W/m2
05:24 71.6 °F /  22 °C 70.4 °F /  21.3 °C 29.92in /  1013.1hPa Calm     96% 0.00in /  0mm 0 W/m2
05:29 71.5 °F /  21.9 °C 70.3 °F /  21.3 °C 29.92in /  1013.1hPa Calm     96% 0.00in /  0mm 0 W/m2
05:34 71.5 °F /  21.9 °C 70.3 °F /  21.3 °C 29.92in /  1013.1hPa Calm     96% 0.00in /  0mm 0 W/m2
05:39 71.5 °F /  21.9 °C 70.3 °F /  21.3 °C 29.92in /  1013.1hPa Calm   1mph /  1.6km/h 96% 0.00in /  0mm 7 W/m2
05:44 71.5 °F /  21.9 °C 70.3 °F /  21.3 °C 29.92in /  1013.1hPa Calm   1mph /  1.6km/h 96% 0.00in /  0mm 11 W/m2
05:49 71.5 °F /  21.9 °C 70.3 °F /  21.3 °C 29.92in /  1013.1hPa Calm   1mph /  1.6km/h 96% 0.00in /  0mm 11 W/m2
05:51 71.5 °F /  21.9 °C 70.3 °F /  21.3 °C 29.92in /  1013.1hPa Calm   1mph /  1.6km/h 96% 0.00in /  0mm 12 W/m2
06:30 72 °F /  22.2 °C 70.8 °F /  21.6 °C 29.91in /  1012.8hPa Calm     96% 0.00in /  0mm 42 W/m2
07:00 72.4 °F /  22.4 °C 71.2 °F /  21.8 °C 29.92in /  1013.1hPa Calm     96% 0.00in /  0mm 72 W/m2
07:30 73.7 °F /  23.2 °C 72.5 °F /  22.5 °C 29.92in /  1013.1hPa Calm     96% 0.00in /  0mm 130 W/m2
08:04 75.1 °F /  23.9 °C 73.3 °F /  22.9 °C 29.92in /  1013.1hPa Calm     94.2% 0.00in /  0mm 287 W/m2
08:09 75.5 °F /  24.2 °C 73.5 °F /  23.1 °C 29.93in /  1013.4hPa West 0.9mph /  1.4km/h 6mph /  9.7km/h 93.6% 0.00in /  0mm 404 W/m2
08:14 75.9 °F /  24.4 °C 73.4 °F /  23 °C 29.93in /  1013.4hPa West 0.3mph /  0.5km/h 6mph /  9.7km/h 92% 0.00in /  0mm 436 W/m2
08:19 76.6 °F /  24.8 °C 73.5 °F /  23.1 °C 29.92in /  1013.1hPa WNW 0.2mph /  0.3km/h 6mph /  9.7km/h 90.2% 0.00in /  0mm 436 W/m2
08:24 77.1 °F /  25.1 °C 73.1 °F /  22.8 °C 29.93in /  1013.4hPa NW 0.1mph /  0.2km/h 6mph /  9.7km/h 87.7% 0.00in /  0mm 591 W/m2
08:29 77.8 °F /  25.4 °C 73.8 °F /  23.2 °C 29.92in /  1013.1hPa Calm   6mph /  9.7km/h 87.3% 0.00in /  0mm 619 W/m2
08:34 78.8 °F /  26 °C 73.9 °F /  23.3 °C 29.92in /  1013.1hPa WNW 0.7mph /  1.1km/h 7mph /  11.3km/h 85.2% 0.00in /  0mm 619 W/m2
08:39 79.6 °F /  26.4 °C 73.9 °F /  23.3 °C 29.92in /  1013.1hPa West 0.8mph /  1.3km/h 7mph /  11.3km/h 82.9% 0.00in /  0mm 619 W/m2
08:44 80.5 °F /  26.9 °C 74.8 °F /  23.8 °C 29.92in /  1013.1hPa Calm   7mph /  11.3km/h 83% 0.00in /  0mm 652 W/m2
08:49 81.3 °F /  27.4 °C 74.8 °F /  23.8 °C 29.92in /  1013.1hPa WNW 1.4mph /  2.3km/h 7mph /  11.3km/h 80.5% 0.00in /  0mm 673 W/m2
08:54 81.8 °F /  27.7 °C 74.3 °F /  23.5 °C 29.93in /  1013.4hPa West 0.9mph /  1.4km/h 7mph /  11.3km/h 78.2% 0.00in /  0mm 612 W/m2
08:59 82.1 °F /  27.8 °C 74.4 °F /  23.6 °C 29.93in /  1013.4hPa West 0.5mph /  0.8km/h 7mph /  11.3km/h 77.5% 0.00in /  0mm 450 W/m2
09:04 82.1 °F /  27.8 °C 74.1 °F /  23.4 °C 29.93in /  1013.4hPa West 0.8mph /  1.3km/h 7mph /  11.3km/h 76.8% 0.00in /  0mm 371 W/m2
09:09 81.9 °F /  27.7 °C 74 °F /  23.3 °C 29.93in /  1013.4hPa NW 1.6mph /  2.6km/h 7mph /  11.3km/h 77.1% 0.00in /  0mm 401 W/m2
09:14 81.6 °F /  27.6 °C 73.4 °F /  23 °C 29.93in /  1013.4hPa WNW 1.2mph /  1.9km/h 7mph /  11.3km/h 76.3% 0.00in /  0mm 401 W/m2
09:19 81.4 °F /  27.4 °C 73.4 °F /  23 °C 29.93in /  1013.4hPa WNW 3mph /  4.8km/h 10mph /  16.1km/h 76.7% 0.00in /  0mm 534 W/m2
09:24 81.3 °F /  27.4 °C 73.4 °F /  23 °C 29.93in /  1013.4hPa WNW 1.2mph /  1.9km/h 10mph /  16.1km/h 77.1% 0.00in /  0mm 485 W/m2
09:29 81.3 °F /  27.4 °C 73.8 °F /  23.2 °C 29.93in /  1013.4hPa West 0.3mph /  0.5km/h 10mph /  16.1km/h 78% 0.00in /  0mm 339 W/m2
09:34 81.4 °F /  27.4 °C 73.8 °F /  23.2 °C 29.93in /  1013.4hPa WNW 1.3mph /  2.1km/h 10mph /  16.1km/h 77.7% 0.00in /  0mm 385 W/m2
09:39 81.4 °F /  27.4 °C 73.3 °F /  22.9 °C 29.93in /  1013.4hPa WNW 2.1mph /  3.4km/h 7mph /  11.3km/h 76.5% 0.00in /  0mm 504 W/m2
09:44 81.4 °F /  27.4 °C 73.5 °F /  23.1 °C 29.93in /  1013.4hPa NW 0.2mph /  0.3km/h 7mph /  11.3km/h 76.9% 0.00in /  0mm 584 W/m2
09:49 81.7 °F /  27.6 °C 73.9 °F /  23.3 °C 29.94in /  1013.8hPa NW 0.1mph /  0.2km/h 7mph /  11.3km/h 77.3% 0.00in /  0mm 599 W/m2
09:54 82.1 °F /  27.8 °C 74.5 °F /  23.6 °C 29.94in /  1013.8hPa NW 0.1mph /  0.2km/h 7mph /  11.3km/h 77.9% 0.00in /  0mm 642 W/m2
09:59 82.7 °F /  28.2 °C 74.5 °F /  23.6 °C 29.94in /  1013.8hPa NNW 0.7mph /  1.1km/h 7mph /  11.3km/h 76.4% 0.00in /  0mm 684 W/m2
10:04 83.3 °F /  28.5 °C 74.3 °F /  23.5 °C 29.94in /  1013.8hPa NW 1.2mph /  1.9km/h 7mph /  11.3km/h 74.4% 0.00in /  0mm 684 W/m2
10:09 83.6 °F /  28.7 °C 74.6 °F /  23.7 °C 29.94in /  1013.8hPa Calm   7mph /  11.3km/h 74.3% 0.00in /  0mm 596 W/m2
10:14 84 °F /  28.9 °C 74.8 °F /  23.8 °C 29.94in /  1013.8hPa NNE 0.4mph /  0.6km/h 7mph /  11.3km/h 73.9% 0.00in /  0mm 520 W/m2
10:19 84.1 °F /  28.9 °C 75.1 °F /  23.9 °C 29.94in /  1013.8hPa NNE 0.2mph /  0.3km/h 7mph /  11.3km/h 74.2% 0.00in /  0mm 457 W/m2
10:24 84.3 °F /  29.1 °C 74.8 °F /  23.8 °C 29.94in /  1013.8hPa NNE 0.4mph /  0.6km/h 7mph /  11.3km/h 73.4% 0.00in /  0mm 974 W/m2
10:29 84.7 °F /  29.3 °C 75.7 °F /  24.3 °C 29.94in /  1013.8hPa WNW 1.1mph /  1.8km/h 7mph /  11.3km/h 74.5% 0.00in /  0mm 974 W/m2
10:33 85.2 °F /  29.6 °C 75.8 °F /  24.3 °C 29.94in /  1013.8hPa West 0.2mph /  0.3km/h 7mph /  11.3km/h 73.5% 0.00in /  0mm 854 W/m2
10:39 85.8 °F /  29.9 °C 75.2 °F /  24 °C 29.94in /  1013.8hPa WNW 0.8mph /  1.3km/h 9mph /  14.5km/h 70.8% 0.00in /  0mm 807 W/m2
10:44 85.8 °F /  29.9 °C 74.2 °F /  23.4 °C 29.94in /  1013.8hPa Calm   9mph /  14.5km/h 68.2% 0.00in /  0mm 826 W/m2
10:49 85.7 °F /  29.8 °C 74.7 °F /  23.7 °C 29.94in /  1013.8hPa WNW 0.8mph /  1.3km/h 9mph /  14.5km/h 69.7% 0.00in /  0mm 737 W/m2
10:54 85.9 °F /  29.9 °C 74.8 °F /  23.8 °C 29.94in /  1013.8hPa West 0.9mph /  1.4km/h 9mph /  14.5km/h 69.7% 0.00in /  0mm 958 W/m2
10:59 86 °F /  30 °C 75.1 °F /  23.9 °C 29.94in /  1013.8hPa South 0.1mph /  0.2km/h 9mph /  14.5km/h 70.1% 0.00in /  0mm 958 W/m2
11:04 85.9 °F /  29.9 °C 74.7 °F /  23.7 °C 29.95in /  1014.1hPa WNW 0.8mph /  1.3km/h 9mph /  14.5km/h 69.3% 0.00in /  0mm 462 W/m2
11:09 85.7 °F /  29.8 °C 74.2 °F /  23.4 °C 29.95in /  1014.1hPa NW 1.6mph /  2.6km/h 6mph /  9.7km/h 68.7% 0.00in /  0mm 267 W/m2
11:14 85.4 °F /  29.7 °C 74.2 °F /  23.4 °C 29.95in /  1014.1hPa NNE 0.6mph /  1km/h 6mph /  9.7km/h 69.3% 0.00in /  0mm 1035 W/m2
11:19 85.4 °F /  29.7 °C 74.1 °F /  23.4 °C 29.95in /  1014.1hPa NNE 0.4mph /  0.6km/h 6mph /  9.7km/h 69.1% 0.00in /  0mm 253 W/m2
11:24 85.5 °F /  29.7 °C 74.7 °F /  23.7 °C 29.94in /  1013.8hPa NE 0.5mph /  0.8km/h 6mph /  9.7km/h 70.4% 0.00in /  0mm 455 W/m2
11:29 85.5 °F /  29.7 °C 74.6 °F /  23.7 °C 29.94in /  1013.8hPa ENE 0.2mph /  0.3km/h 6mph /  9.7km/h 69.9% 0.00in /  0mm 338 W/m2
11:34 85.4 °F /  29.7 °C 74.1 °F /  23.4 °C 29.94in /  1013.8hPa NE 0.2mph /  0.3km/h 6mph /  9.7km/h 68.9% 0.00in /  0mm 1046 W/m2
11:39 85.6 °F /  29.8 °C 74 °F /  23.3 °C 29.94in /  1013.8hPa NE 0.2mph /  0.3km/h 3mph /  4.8km/h 68.5% 0.00in /  0mm 1044 W/m2
11:44 86.2 °F /  30.1 °C 75.4 °F /  24.1 °C 29.94in /  1013.8hPa NE 0.2mph /  0.3km/h 3mph /  4.8km/h 70.5% 0.00in /  0mm 1081 W/m2
11:49 86.9 °F /  30.5 °C 75.5 °F /  24.2 °C 29.94in /  1013.8hPa NE 0.2mph /  0.3km/h 3mph /  4.8km/h 68.9% 0.00in /  0mm 1097 W/m2
11:54 87.5 °F /  30.8 °C 75.6 °F /  24.2 °C 29.94in /  1013.8hPa NNW 2.4mph /  3.9km/h 7mph /  11.3km/h 67.9% 0.00in /  0mm 297 W/m2
11:59 87.7 °F /  30.9 °C 75 °F /  23.9 °C 29.94in /  1013.8hPa WNW 1.2mph /  1.9km/h 7mph /  11.3km/h 66.3% 0.00in /  0mm 1011 W/m2
12:04 87.7 °F /  30.9 °C 75.4 °F /  24.1 °C 29.94in /  1013.8hPa Calm     67% 0.00in /  0mm 1037 W/m2
12:09 88 °F /  31.1 °C 76.1 °F /  24.5 °C 29.94in /  1013.8hPa WNW 0.3mph /  0.5km/h 3mph /  4.8km/h 67.9% 0.00in /  0mm 1137 W/m2
12:14 88.5 °F /  31.4 °C 74.9 °F /  23.8 °C 29.94in /  1013.8hPa NNW 0.5mph /  0.8km/h 5mph /  8km/h 64.3% 0.00in /  0mm 1099 W/m2
12:19 88.5 °F /  31.4 °C 74.4 °F /  23.6 °C 29.93in /  1013.4hPa ENE 1.1mph /  1.8km/h 7mph /  11.3km/h 63.1% 0.00in /  0mm 1081 W/m2
12:21 88.5 °F /  31.4 °C 75.4 °F /  24.1 °C 29.93in /  1013.4hPa NE 1.7mph /  2.7km/h 7mph /  11.3km/h 65.3% 0.00in /  0mm 1005 W/m2
12:30 89.2 °F /  31.8 °C 75 °F /  23.9 °C 29.93in /  1013.4hPa NE 1mph /  1.6km/h 7mph /  11.3km/h 63% 0.00in /  0mm 1020 W/m2
13:00 89.3 °F /  31.8 °C 74.1 °F /  23.4 °C 29.92in /  1013.1hPa NW 1mph /  1.6km/h 6mph /  9.7km/h 61% 0.00in /  0mm 969 W/m2
13:30 89.4 °F /  31.9 °C 72.7 °F /  22.6 °C 29.92in /  1013.1hPa North 1mph /  1.6km/h 9mph /  14.5km/h 58% 0.00in /  0mm 946 W/m2
14:00 91.2 °F /  32.9 °C 75.4 °F /  24.1 °C 29.91in /  1012.8hPa East 1mph /  1.6km/h 7mph /  11.3km/h 60% 0.00in /  0mm 980 W/m2
14:30 90.5 °F /  32.5 °C 73.7 °F /  23.2 °C 29.91in /  1012.8hPa Calm   3mph /  4.8km/h 58% 0.00in /  0mm 692 W/m2
15:29 92.3 °F /  33.5 °C 74.8 °F /  23.8 °C 29.91in /  1012.8hPa WNW 2.8mph /  4.5km/h 5mph /  8km/h 56.9% 0.00in /  0mm 692 W/m2
15:34 92.3 °F /  33.5 °C 75.1 °F /  23.9 °C 29.89in /  1012.1hPa WNW 1.8mph /  2.9km/h 6mph /  9.7km/h 57.5% 0.00in /  0mm 926 W/m2
15:39 92.2 °F /  33.4 °C 74.9 °F /  23.8 °C 29.89in /  1012.1hPa West 0.3mph /  0.5km/h 6mph /  9.7km/h 57.3% 0.00in /  0mm 909 W/m2
15:44 92.2 °F /  33.4 °C 75.3 °F /  24.1 °C 29.88in /  1011.7hPa SW 1.7mph /  2.7km/h 6mph /  9.7km/h 57.9% 0.00in /  0mm 861 W/m2
15:49 92.2 °F /  33.4 °C 74.9 °F /  23.8 °C 29.88in /  1011.7hPa WSW 1.4mph /  2.3km/h 7mph /  11.3km/h 57.2% 0.00in /  0mm 294 W/m2
15:54 91.7 °F /  33.2 °C 73.9 °F /  23.3 °C 29.88in /  1011.7hPa SW 1.6mph /  2.6km/h 7mph /  11.3km/h 56.2% 0.00in /  0mm 360 W/m2
15:59 91.4 °F /  33 °C 74.9 °F /  23.8 °C 29.88in /  1011.7hPa Calm   7mph /  11.3km/h 58.6% 0.00in /  0mm 350 W/m2
16:00 91.4 °F /  33 °C 75.1 °F /  23.9 °C 29.88in /  1011.7hPa Calm   7mph /  11.3km/h 59% 0.00in /  0mm 207 W/m2
16:09 91.1 °F /  32.8 °C 74.4 °F /  23.6 °C 29.89in /  1012.1hPa NE 2mph /  3.2km/h 7mph /  11.3km/h 58.2% 0.00in /  0mm 160 W/m2
16:14 90 °F /  32.2 °C 73.6 °F /  23.1 °C 29.89in /  1012.1hPa ENE 3.8mph /  6.1km/h 10mph /  16.1km/h 58.8% 0.00in /  0mm 84 W/m2
16:19 88.2 °F /  31.2 °C 73 °F /  22.8 °C 29.89in /  1012.1hPa ENE 2.2mph /  3.5km/h 10mph /  16.1km/h 60.9% 0.00in /  0mm 81 W/m2
16:24 86.8 °F /  30.4 °C 72.1 °F /  22.3 °C 29.89in /  1012.1hPa East 3.4mph /  5.5km/h 11mph /  17.7km/h 61.7% 0.00in /  0mm 109 W/m2
16:29 85.6 °F /  29.8 °C 71.3 °F /  21.8 °C 29.89in /  1012.1hPa ENE 1.2mph /  1.9km/h 11mph /  17.7km/h 62.5% 0.00in /  0mm 174 W/m2
16:34 84.8 °F /  29.3 °C 71.9 °F /  22.2 °C 29.89in /  1012.1hPa East 2.1mph /  3.4km/h 11mph /  17.7km/h 65.3% 0.00in /  0mm 202 W/m2
16:39 84.5 °F /  29.2 °C 72.1 °F /  22.3 °C 29.88in /  1011.7hPa ENE 0.1mph /  0.2km/h 9mph /  14.5km/h 66.4% 0.00in /  0mm 144 W/m2
16:44 84.5 °F /  29.2 °C 72.5 °F /  22.5 °C 29.88in /  1011.7hPa Calm   9mph /  14.5km/h 67.2% 0.00in /  0mm 134 W/m2
16:49 84.8 °F /  29.3 °C 72.6 °F /  22.6 °C 29.89in /  1012.1hPa Calm   9mph /  14.5km/h 67% 0.00in /  0mm 134 W/m2
16:54 85 °F /  29.4 °C 72.8 °F /  22.7 °C 29.89in /  1012.1hPa Calm   9mph /  14.5km/h 67% 0.00in /  0mm 105 W/m2
16:59 85.1 °F /  29.5 °C 73.3 °F /  22.9 °C 29.89in /  1012.1hPa Calm   9mph /  14.5km/h 67.7% 0.00in /  0mm 98 W/m2
17:04 85.2 °F /  29.6 °C 72.9 °F /  22.7 °C 29.89in /  1012.1hPa Calm   9mph /  14.5km/h 66.6% 0.00in /  0mm 98 W/m2
17:09 85.4 °F /  29.7 °C 72.6 °F /  22.6 °C 29.89in /  1012.1hPa Calm     65.6% 0.00in /  0mm 97 W/m2
17:34 85.2 °F /  29.6 °C 72.7 °F /  22.6 °C 29.88in /  1011.7hPa East 0.2mph /  0.3km/h 3mph /  4.8km/h 66.3% 0.00in /  0mm 83 W/m2
17:39 85 °F /  29.4 °C 73.6 °F /  23.1 °C 29.89in /  1012.1hPa Calm   3mph /  4.8km/h 68.9% 0.00in /  0mm 83 W/m2
17:44 84.8 °F /  29.3 °C 73.9 °F /  23.3 °C 29.88in /  1011.7hPa Calm   3mph /  4.8km/h 70% 0.00in /  0mm 65 W/m2
17:49 84.5 °F /  29.2 °C 73.5 °F /  23.1 °C 29.88in /  1011.7hPa Calm   3mph /  4.8km/h 69.8% 0.00in /  0mm 53 W/m2
17:54 84.2 °F /  29 °C 73.5 °F /  23.1 °C 29.88in /  1011.7hPa Calm   3mph /  4.8km/h 70.2% 0.00in /  0mm 53 W/m2
17:59 84 °F /  28.9 °C 74.1 °F /  23.4 °C 29.89in /  1012.1hPa Calm   3mph /  4.8km/h 72% 0.00in /  0mm 58 W/m2
18:04 83.8 °F /  28.8 °C 73.8 °F /  23.2 °C 29.89in /  1012.1hPa Calm   3mph /  4.8km/h 72% 0.00in /  0mm 63 W/m2
18:09 83.6 °F /  28.7 °C 73.8 °F /  23.2 °C 29.89in /  1012.1hPa Calm     72.3% 0.00in /  0mm 76 W/m2
18:14 83.6 °F /  28.7 °C 74.2 °F /  23.4 °C 29.89in /  1012.1hPa Calm     73.4% 0.00in /  0mm 77 W/m2
18:19 83.6 °F /  28.7 °C 74.4 °F /  23.6 °C 29.89in /  1012.1hPa Calm     74% 0.00in /  0mm 74 W/m2
18:24 83.5 °F /  28.6 °C 74.3 °F /  23.5 °C 29.89in /  1012.1hPa Calm     74% 0.00in /  0mm 72 W/m2
18:29 83.4 °F /  28.6 °C 74.6 °F /  23.7 °C 29.89in /  1012.1hPa Calm     74.9% 0.00in /  0mm 72 W/m2
18:34 83.3 °F /  28.5 °C 74.5 °F /  23.6 °C 29.89in /  1012.1hPa Calm     75% 0.00in /  0mm 72 W/m2
18:39 83.2 °F /  28.4 °C 74.3 °F /  23.5 °C 29.89in /  1012.1hPa Calm     74.7% 0.00in /  0mm 70 W/m2
18:44 83 °F /  28.3 °C 73.3 °F /  22.9 °C 29.90in /  1012.4hPa Calm     72.5% 0.00in /  0mm 69 W/m2
18:49 82.9 °F /  28.3 °C 73.4 °F /  23 °C 29.90in /  1012.4hPa Calm     73% 0.00in /  0mm 67 W/m2
18:54 82.9 °F /  28.3 °C 73.3 °F /  22.9 °C 29.91in /  1012.8hPa Calm     72.8% 0.00in /  0mm 63 W/m2
18:59 82.8 °F /  28.2 °C 73.5 °F /  23.1 °C 29.91in /  1012.8hPa Calm     73.6% 0.00in /  0mm 56 W/m2
19:04 82.7 °F /  28.2 °C 73.3 °F /  22.9 °C 29.91in /  1012.8hPa Calm     73.3% 0.00in /  0mm 53 W/m2
19:09 82.5 °F /  28.1 °C 73 °F /  22.8 °C 29.91in /  1012.8hPa Calm     73% 0.00in /  0mm 46 W/m2
19:14 82.4 °F /  28 °C 72.9 °F /  22.7 °C 29.91in /  1012.8hPa Calm     73% 0.00in /  0mm 40 W/m2
19:19 82.3 °F /  27.9 °C 72.8 °F /  22.7 °C 29.91in /  1012.8hPa Calm     73% 0.00in /  0mm 37 W/m2
19:24 82.2 °F /  27.9 °C 72.7 °F /  22.6 °C 29.91in /  1012.8hPa Calm     73% 0.00in /  0mm 33 W/m2
19:29 82.1 °F /  27.8 °C 72.5 °F /  22.5 °C 29.91in /  1012.8hPa Calm     72.7% 0.00in /  0mm 30 W/m2
19:34 82 °F /  27.8 °C 72.5 °F /  22.5 °C 29.91in /  1012.8hPa Calm     73% 0.00in /  0mm 30 W/m2
19:39 81.9 °F /  27.7 °C 72.6 °F /  22.6 °C 29.92in /  1013.1hPa Calm     73.5% 0.00in /  0mm 35 W/m2
19:44 81.8 °F /  27.7 °C 72.7 °F /  22.6 °C 29.92in /  1013.1hPa Calm     74% 0.00in /  0mm 42 W/m2
19:49 81.8 °F /  27.7 °C 72.9 °F /  22.7 °C 29.92in /  1013.1hPa Calm     74.5% 0.00in /  0mm 47 W/m2
19:54 81.8 °F /  27.7 °C 73.1 °F /  22.8 °C 29.92in /  1013.1hPa Calm     75% 0.00in /  0mm 47 W/m2
19:59 81.8 °F /  27.7 °C 73.2 °F /  22.9 °C 29.92in /  1013.1hPa Calm     75.1% 0.00in /  0mm 46 W/m2
20:00 81.8 °F /  27.7 °C 73.5 °F /  23.1 °C 29.92in /  1013.1hPa Calm     76% 0.00in /  0mm 35 W/m2
20:09 81.7 °F /  27.6 °C 73.1 °F /  22.8 °C 29.92in /  1013.1hPa Calm     75.2% 0.00in /  0mm 23 W/m2
20:14 81.6 °F /  27.6 °C 72.9 °F /  22.7 °C 29.92in /  1013.1hPa Calm     75% 0.00in /  0mm 18 W/m2
20:19 81.5 °F /  27.5 °C 73.1 °F /  22.8 °C 29.92in /  1013.1hPa Calm     75.7% 0.00in /  0mm 11 W/m2
20:24 81.4 °F /  27.4 °C 73.1 °F /  22.8 °C 29.92in /  1013.1hPa Calm     76% 0.00in /  0mm 9 W/m2
20:29 81.3 °F /  27.4 °C 73.1 °F /  22.8 °C 29.92in /  1013.1hPa Calm     76% 0.00in /  0mm 5 W/m2
20:34 81.2 °F /  27.3 °C 73 °F /  22.8 °C 29.92in /  1013.1hPa Calm     76.2% 0.00in /  0mm 0 W/m2
20:39 81.1 °F /  27.3 °C 73.2 °F /  22.9 °C 29.92in /  1013.1hPa Calm     77% 0.00in /  0mm 0 W/m2
20:44 81 °F /  27.2 °C 73.3 °F /  22.9 °C 29.92in /  1013.1hPa Calm     77.3% 0.00in /  0mm 0 W/m2
20:49 80.9 °F /  27.2 °C 73.4 °F /  23 °C 29.92in /  1013.1hPa Calm     78% 0.00in /  0mm 0 W/m2
20:54 80.7 °F /  27.1 °C 73.2 °F /  22.9 °C 29.92in /  1013.1hPa Calm     78% 0.00in /  0mm 0 W/m2
20:59 80.5 °F /  26.9 °C 73.3 °F /  22.9 °C 29.92in /  1013.1hPa Calm     78.8% 0.00in /  0mm 0 W/m2
21:04 80.3 °F /  26.8 °C 73.2 °F /  22.9 °C 29.92in /  1013.1hPa Calm     79% 0.00in /  0mm 0 W/m2
21:09 80.1 °F /  26.7 °C 73 °F /  22.8 °C 29.92in /  1013.1hPa Calm     79% 0.00in /  0mm 0 W/m2
21:13 79.9 °F /  26.6 °C 73 °F /  22.8 °C 29.92in /  1013.1hPa Calm     79.6% 0.00in /  0mm 0 W/m2
21:19 79.6 °F /  26.4 °C 72.9 °F /  22.7 °C 29.92in /  1013.1hPa Calm     80% 0.00in /  0mm 0 W/m2
21:24 79.5 °F /  26.4 °C 72.9 °F /  22.7 °C 29.92in /  1013.1hPa Calm     80.3% 0.00in /  0mm 0 W/m2
21:29 79.3 °F /  26.3 °C 73 °F /  22.8 °C 29.92in /  1013.1hPa Calm     81% 0.00in /  0mm 0 W/m2
21:34 79.1 °F /  26.2 °C 73.1 °F /  22.8 °C 29.92in /  1013.1hPa Calm     81.8% 0.00in /  0mm 0 W/m2
21:39 78.9 °F /  26.1 °C 73 °F /  22.8 °C 29.92in /  1013.1hPa Calm     82% 0.00in /  0mm 0 W/m2
21:44 78.8 °F /  26 °C 72.8 °F /  22.7 °C 29.92in /  1013.1hPa Calm     82% 0.00in /  0mm 0 W/m2
21:49 78.6 °F /  25.9 °C 72.9 °F /  22.7 °C 29.92in /  1013.1hPa Calm     82.5% 0.00in /  0mm 0 W/m2
21:54 78.5 °F /  25.8 °C 72.9 °F /  22.7 °C 29.93in /  1013.4hPa Calm     83% 0.00in /  0mm 0 W/m2
21:59 78.3 °F /  25.7 °C 72.7 °F /  22.6 °C 29.93in /  1013.4hPa Calm     83% 0.00in /  0mm 0 W/m2
22:04 78.2 °F /  25.7 °C 72.6 °F /  22.6 °C 29.93in /  1013.4hPa Calm     83% 0.00in /  0mm 0 W/m2
22:09 78 °F /  25.6 °C 72.4 °F /  22.4 °C 29.93in /  1013.4hPa Calm     83% 0.00in /  0mm 0 W/m2
22:14 77.8 °F /  25.4 °C 72.3 °F /  22.4 °C 29.93in /  1013.4hPa Calm     83% 0.00in /  0mm 0 W/m2
22:19 77.7 °F /  25.4 °C 72.2 °F /  22.3 °C 29.93in /  1013.4hPa Calm     83.3% 0.00in /  0mm 0 W/m2
22:24 77.6 °F /  25.3 °C 72.3 °F /  22.4 °C 29.93in /  1013.4hPa Calm     84% 0.00in /  0mm 0 W/m2
22:29 77.4 °F /  25.2 °C 72.2 °F /  22.3 °C 29.93in /  1013.4hPa Calm     84% 0.00in /  0mm 0 W/m2
22:34 77.3 °F /  25.2 °C 72.1 °F /  22.3 °C 29.93in /  1013.4hPa Calm     84% 0.00in /  0mm 0 W/m2
22:39 77.3 °F /  25.2 °C 72.4 °F /  22.4 °C 29.93in /  1013.4hPa Calm     85% 0.00in /  0mm 0 W/m2
22:44 77.2 °F /  25.1 °C 72.6 °F /  22.6 °C 29.94in /  1013.8hPa Calm     85.6% 0.00in /  0mm 0 W/m2
22:49 77.1 °F /  25.1 °C 72.6 °F /  22.6 °C 29.94in /  1013.8hPa Calm     86% 0.00in /  0mm 0 W/m2
22:54 77 °F /  25 °C 72.5 °F /  22.5 °C 29.94in /  1013.8hPa Calm     86% 0.00in /  0mm 0 W/m2
22:59 76.9 °F /  24.9 °C 72.4 °F /  22.4 °C 29.94in /  1013.8hPa Calm     86% 0.00in /  0mm 0 W/m2
23:04 76.8 °F /  24.9 °C 72.4 °F /  22.4 °C 29.94in /  1013.8hPa Calm     86.3% 0.00in /  0mm 0 W/m2
23:09 76.7 °F /  24.8 °C 72.2 °F /  22.3 °C 29.94in /  1013.8hPa Calm     86% 0.00in /  0mm 0 W/m2
23:14 76.5 °F /  24.7 °C 72 °F /  22.2 °C 29.94in /  1013.8hPa Calm     86% 0.00in /  0mm 0 W/m2
23:19 76.4 °F /  24.7 °C 71.9 °F /  22.2 °C 29.94in /  1013.8hPa Calm     86% 0.00in /  0mm 0 W/m2
23:24 76.2 °F /  24.6 °C 71.5 °F /  21.9 °C 29.94in /  1013.8hPa NNW 0.1mph /  0.2km/h 3mph /  4.8km/h 85.4% 0.00in /  0mm 0 W/m2
23:29 76 °F /  24.4 °C 71 °F /  21.7 °C 29.94in /  1013.8hPa NNW 0.3mph /  0.5km/h 4mph /  6.4km/h 84.6% 0.00in /  0mm 0 W/m2
23:34 75.8 °F /  24.3 °C 70.4 °F /  21.3 °C 29.95in /  1014.1hPa Calm   4mph /  6.4km/h 83.4% 0.00in /  0mm 0 W/m2
23:39 75.6 °F /  24.2 °C 69.8 °F /  21 °C 29.95in /  1014.1hPa North 0.1mph /  0.2km/h 1mph /  1.6km/h 82.1% 0.00in /  0mm 0 W/m2
23:44 75.6 °F /  24.2 °C 69.1 °F /  20.6 °C 29.95in /  1014.1hPa NE 0.6mph /  1km/h 5mph /  8km/h 80.3% 0.00in /  0mm 0 W/m2
23:49 75.6 °F /  24.2 °C 68.6 °F /  20.3 °C 29.95in /  1014.1hPa Calm   5mph /  8km/h 79% 0.00in /  0mm 0 W/m2
23:54 75.7 °F /  24.3 °C 68.5 °F /  20.3 °C 29.95in /  1014.1hPa Calm   5mph /  8km/h 78.4% 0.00in /  0mm 0 W/m2
23:59 75.7 °F /  24.3 °C 68.3 °F /  20.2 °C 29.95in /  1014.1hPa NW 0.1mph /  0.2km/h 5mph /  8km/h 78% 0.00in /  0mm 0 W/m2
Hartford County Weather
Compliments of Weather Underground - 4 mb